Archival Weather

Snohomish County (Paine Fld)

Everett, Washington (KPAE)

Report from: Thursday, October 26, 2023 10:53 AM PDT
Current time: Friday, June 14, 2024 6:49 AM PDT

Current weather – Weather history – Daily summaries
Weather forecast

Temperature7.2°C (45.0°F)
Wind chill5.9°C (42.6°F)
Dew point1.7°C (35.1°F)
Winds 4 kts (2.1 m/s, 4.6 mph) Vrb
Winds variableWinds variable
Visibility10 mi. (16.1 km)
Clouds Sky clear
Altimeter30.24 in.Hg (1024 mB)
Relative humidity68 %
Density altitude-1,205 ft. (-367 m)
Sea-level pressure102.4 kPa (1024 mB, 30.24 in.Hg)
Max temp last 6 hours7.2°C (45.0°F)
Min temp last 6 hours1.7°C (35.1°F)
Remarks Automated weather observing station with precipitation discriminator
Pressure rising more slowly
Flight conditions Visual Meteorological Conditions
Raw dataKPAE 261753Z VRB04KT 10SM CLR 07/02 A3024 RMK AO2 SLP242 T00720017 10072 20017 51014
An error has occurred. This application may no longer respond until reloaded. Reload 🗙